Time;durP1;ratioP1;P1;durP2;ratioP2;P2;SDS_P1;SDS_P2;PMS_P1;PMS_P2;Temp;Humidity;BMP_temperature;BMP_pressure;BME280_temperature;BME280_humidity;BME280_pressure;Samples;Min_cycle;Max_cycle;Signal;HPM_P1;HPM_P2
2021/12/05 00:24:10;;;;;;;;;;;5.20;79.30;;;;;;5010572;28;88237;-63
2021/12/05 00:26:36;;;;;;;;;;;5.10;79.30;;;;;;5016712;28;87189;-63
2021/12/05 01:15:39;;;;;;;;;;;5.00;79.50;;;;;;5021364;28;88513;-63
2021/12/05 01:18:08;;;;;;;;;;;5.00;79.50;;;;;;5016474;28;88756;-63
2021/12/05 01:20:36;;;;;;;;;;;5.00;79.40;;;;;;5019064;28;88076;-63
2021/12/05 01:23:08;;;;;;;;;;;5.00;79.50;;;;;;5018310;28;88086;-63
2021/12/05 01:25:50;;;;;;;;;;;5.00;79.40;;;;;;5014499;28;88297;-63
2021/12/05 01:28:35;;;;;;;;;;;5.00;79.40;;;;;;5020349;28;88080;-63
2021/12/05 01:33:39;;;;;;;;;;;5.00;79.30;;;;;;5018019;28;88100;-63
2021/12/05 01:36:12;;;;;;;;;;;5.00;79.50;;;;;;5016121;28;88800;-63
2021/12/05 02:08:29;;;;;;;;;;;4.90;79.60;;;;;;5017699;28;87302;-63
2021/12/05 02:11:08;;;;;;;;;;;4.90;79.70;;;;;;5018241;28;87145;-63
2021/12/05 02:35:40;;;;;;;;;;;4.90;79.60;;;;;;5016110;28;88773;-63
2021/12/05 02:43:35;;;;;;;;;;;4.90;79.60;;;;;;5018535;28;88312;-63
2021/12/05 02:46:03;;;;;;;;;;;4.80;79.60;;;;;;5018614;28;89648;-63
2021/12/05 02:48:30;;;;;;;;;;;4.80;79.70;;;;;;5020855;28;87258;-63
2021/12/05 02:50:57;;;;;;;;;;;4.80;79.80;;;;;;5018103;28;90009;-63
2021/12/05 02:53:36;;;;;;;;;;;4.80;79.70;;;;;;5018885;28;87932;-63
2021/12/05 02:56:03;;;;;;;;;;;4.80;79.70;;;;;;5021818;28;87926;-62
2021/12/05 03:03:29;;;;;;;;;;;4.80;79.80;;;;;;5020283;28;87561;-63
2021/12/05 03:06:01;;;;;;;;;;;4.80;79.70;;;;;;5019436;28;90525;-63
2021/12/05 03:08:26;;;;;;;;;;;4.80;79.90;;;;;;5021899;28;88730;-63
2021/12/05 03:10:53;;;;;;;;;;;4.80;79.90;;;;;;5021229;28;88561;-63
2021/12/05 03:13:18;;;;;;;;;;;4.80;79.80;;;;;;5018682;28;87132;-63
2021/12/05 03:15:44;;;;;;;;;;;4.80;79.70;;;;;;5018815;28;88812;-63
2021/12/05 03:18:10;;;;;;;;;;;4.80;79.80;;;;;;5018906;28;89624;-63
2021/12/05 03:20:35;;;;;;;;;;;4.80;79.80;;;;;;5018958;28;87160;-63
2021/12/05 03:23:01;;;;;;;;;;;4.80;79.70;;;;;;5020255;28;86499;-63
2021/12/05 03:25:27;;;;;;;;;;;4.80;79.80;;;;;;5020003;28;88907;-63
2021/12/05 03:27:53;;;;;;;;;;;4.70;79.80;;;;;;5021064;28;87172;-63
2021/12/05 03:30:21;;;;;;;;;;;4.70;79.80;;;;;;5021265;28;88146;-63
2021/12/05 03:32:49;;;;;;;;;;;4.70;79.80;;;;;;5022190;28;88092;-63
2021/12/05 03:35:14;;;;;;;;;;;4.80;79.80;;;;;;5018316;28;88449;-63
2021/12/05 03:37:40;;;;;;;;;;;4.70;79.80;;;;;;5018766;28;88379;-63
2021/12/05 03:40:07;;;;;;;;;;;4.70;79.80;;;;;;5020093;28;87259;-63
2021/12/05 03:42:33;;;;;;;;;;;4.70;79.80;;;;;;5019113;28;88110;-63
2021/12/05 03:45:00;;;;;;;;;;;4.70;80.40;;;;;;5019312;28;88185;-63
2021/12/05 03:47:28;;;;;;;;;;;4.70;79.90;;;;;;5020302;28;86397;-63
2021/12/05 03:49:54;;;;;;;;;;;4.70;79.90;;;;;;5019400;28;87872;-63
2021/12/05 03:52:20;;;;;;;;;;;4.70;79.80;;;;;;5018237;28;88206;-63
2021/12/05 03:54:46;;;;;;;;;;;4.70;79.90;;;;;;5020801;28;88177;-63
2021/12/05 03:57:11;;;;;;;;;;;4.70;79.80;;;;;;5019198;28;87492;-63
2021/12/05 03:59:37;;;;;;;;;;;4.70;79.90;;;;;;5020436;28;87163;-63
2021/12/05 04:02:04;;;;;;;;;;;4.70;79.90;;;;;;5021553;28;87254;-63
2021/12/05 04:04:30;;;;;;;;;;;4.70;79.90;;;;;;5019493;28;91284;-63
2021/12/05 04:06:56;;;;;;;;;;;4.70;79.80;;;;;;5021155;28;87235;-63
2021/12/05 04:09:21;;;;;;;;;;;4.70;79.90;;;;;;5022036;28;87977;-63
2021/12/05 04:11:57;;;;;;;;;;;4.70;79.90;;;;;;5020190;28;88744;-63
2021/12/05 04:14:24;;;;;;;;;;;4.70;79.90;;;;;;5020560;28;87236;-63
2021/12/05 04:16:49;;;;;;;;;;;4.70;79.90;;;;;;5017804;28;88330;-63
2021/12/05 04:19:15;;;;;;;;;;;4.70;79.90;;;;;;5017421;28;88075;-63
2021/12/05 04:21:41;;;;;;;;;;;4.70;80.00;;;;;;5018932;28;89551;-63
2021/12/05 04:24:07;;;;;;;;;;;4.70;79.80;;;;;;5019516;28;88899;-63
2021/12/05 04:26:34;;;;;;;;;;;4.70;79.90;;;;;;5019787;28;87182;-63
2021/12/05 04:29:00;;;;;;;;;;;4.70;79.90;;;;;;5019780;28;88757;-64
2021/12/05 04:31:26;;;;;;;;;;;4.70;79.80;;;;;;5019446;28;87633;-64
2021/12/05 04:33:52;;;;;;;;;;;4.70;79.90;;;;;;5019471;28;87131;-64
2021/12/05 04:36:18;;;;;;;;;;;4.70;79.70;;;;;;5023138;28;88931;-64
2021/12/05 04:38:44;;;;;;;;;;;4.70;79.80;;;;;;5020151;28;87173;-64
2021/12/05 04:41:10;;;;;;;;;;;4.60;79.80;;;;;;5020533;28;87523;-63
2021/12/05 04:43:37;;;;;;;;;;;4.60;79.90;;;;;;5020629;28;89293;-63
2021/12/05 04:46:09;;;;;;;;;;;4.60;80.00;;;;;;5020335;28;87195;-63
2021/12/05 04:48:35;;;;;;;;;;;4.60;80.00;;;;;;5019398;28;90970;-62
2021/12/05 04:51:01;;;;;;;;;;;4.60;79.80;;;;;;5019757;28;88338;-63
2021/12/05 04:53:28;;;;;;;;;;;4.60;79.90;;;;;;5020976;28;87219;-63
2021/12/05 04:55:55;;;;;;;;;;;4.60;80.00;;;;;;5020112;28;87379;-63
2021/12/05 04:58:20;;;;;;;;;;;4.60;79.90;;;;;;5022672;28;88154;-64
2021/12/05 05:00:46;;;;;;;;;;;4.60;79.90;;;;;;5021776;28;87632;-63
2021/12/05 05:03:12;;;;;;;;;;;4.60;79.90;;;;;;5019725;28;88231;-63
2021/12/05 05:05:43;;;;;;;;;;;4.60;79.90;;;;;;5019546;28;88300;-64
2021/12/05 05:08:09;;;;;;;;;;;4.60;79.90;;;;;;5020558;28;88540;-64
2021/12/05 05:10:35;;;;;;;;;;;4.60;79.80;;;;;;5017663;28;88879;-63
2021/12/05 05:13:00;;;;;;;;;;;4.60;80.00;;;;;;5016052;28;87229;-63
2021/12/05 05:15:28;;;;;;;;;;;4.50;80.00;;;;;;5018137;28;88000;-63
2021/12/05 05:17:55;;;;;;;;;;;4.60;79.90;;;;;;5016803;28;89889;-63
2021/12/05 05:20:44;;;;;;;;;;;4.50;79.80;;;;;;5020440;28;88461;-63
2021/12/05 05:28:51;;;;;;;;;;;4.50;79.90;;;;;;5017783;28;88807;-64
2021/12/05 05:49:24;;;;;;;;;;;4.50;79.90;;;;;;5017532;28;87193;-63
2021/12/05 05:51:49;;;;;;;;;;;4.50;79.90;;;;;;5020290;28;88785;-63
2021/12/05 05:54:16;;;;;;;;;;;4.50;79.90;;;;;;5019085;28;88729;-63
2021/12/05 05:56:44;;;;;;;;;;;4.50;79.90;;;;;;5019638;28;87559;-64
2021/12/05 05:59:38;;;;;;;;;;;4.50;80.40;;;;;;5017916;28;89366;-63
2021/12/05 06:04:44;;;;;;;;;;;4.50;79.90;;;;;;5005731;28;87332;-63
2021/12/05 06:07:11;;;;;;;;;;;4.50;79.80;;;;;;5020345;28;88772;-63
2021/12/05 06:09:36;;;;;;;;;;;4.50;79.80;;;;;;5017007;28;87163;-63
2021/12/05 06:12:02;;;;;;;;;;;4.50;79.90;;;;;;5017749;28;89371;-63
2021/12/05 06:14:29;;;;;;;;;;;4.50;79.90;;;;;;5017792;28;87239;-64
2021/12/05 06:16:54;;;;;;;;;;;4.50;79.80;;;;;;5017372;28;87702;-63
2021/12/05 06:19:20;;;;;;;;;;;4.50;79.70;;;;;;5017688;28;88100;-63
2021/12/05 06:21:46;;;;;;;;;;;4.50;79.70;;;;;;5019212;28;87175;-63
2021/12/05 06:24:12;;;;;;;;;;;4.40;79.70;;;;;;5020447;28;88728;-63
2021/12/05 06:26:38;;;;;;;;;;;4.50;79.80;;;;;;5025472;28;88106;-63
2021/12/05 06:39:39;;;;;;;;;;;4.50;79.90;;;;;;5021080;28;88179;-63
2021/12/05 06:42:31;;;;;;;;;;;4.40;80.00;;;;;;5020602;28;86563;-64
2021/12/05 06:47:37;;;;;;;;;;;4.40;80.00;;;;;;5020569;28;87162;-63
2021/12/05 06:50:03;;;;;;;;;;;4.40;80.10;;;;;;5024498;28;88178;-64
2021/12/05 06:52:29;;;;;;;;;;;4.40;80.00;;;;;;5022483;28;88352;-64
2021/12/05 06:54:54;;;;;;;;;;;4.40;80.00;;;;;;5022608;28;88277;-63
2021/12/05 06:57:20;;;;;;;;;;;4.40;79.80;;;;;;5019801;28;88075;-64
2021/12/05 06:59:48;;;;;;;;;;;4.40;79.90;;;;;;5019257;28;89282;-63
2021/12/05 07:02:15;;;;;;;;;;;4.40;80.00;;;;;;5022730;28;87204;-63
2021/12/05 07:07:28;;;;;;;;;;;4.40;80.10;;;;;;5018799;28;86501;-63
2021/12/05 07:09:54;;;;;;;;;;;4.40;80.10;;;;;;5020071;28;87293;-64
2021/12/05 07:15:09;;;;;;;;;;;4.40;80.00;;;;;;5018509;28;88153;-63
2021/12/05 07:22:48;;;;;;;;;;;4.40;80.20;;;;;;5019940;28;87098;-64
2021/12/05 07:25:27;;;;;;;;;;;4.40;80.30;;;;;;5019713;28;88832;-63
2021/12/05 07:44:05;;;;;;;;;;;4.40;80.00;;;;;;5022503;28;87181;-63
2021/12/05 07:46:30;;;;;;;;;;;4.40;80.40;;;;;;5020273;28;87962;-63
2021/12/05 07:48:56;;;;;;;;;;;4.40;80.30;;;;;;5017758;28;87620;-63
2021/12/05 07:51:26;;;;;;;;;;;4.40;80.40;;;;;;5019058;28;87178;-63
2021/12/05 07:54:11;;;;;;;;;;;4.40;80.50;;;;;;5020627;28;87449;-63
2021/12/05 07:56:57;;;;;;;;;;;4.40;80.40;;;;;;5020748;28;88467;-63
2021/12/05 08:15:40;;;;;;;;;;;4.40;80.00;;;;;;5022442;28;87143;-64
2021/12/05 08:18:06;;;;;;;;;;;4.40;80.20;;;;;;5019319;28;87848;-63
2021/12/05 08:20:37;;;;;;;;;;;4.40;80.40;;;;;;5020172;28;87209;-63
2021/12/05 08:23:04;;;;;;;;;;;4.40;80.10;;;;;;5023794;28;87131;-63
2021/12/05 08:25:31;;;;;;;;;;;4.40;80.30;;;;;;5021643;28;86386;-63
2021/12/05 08:28:08;;;;;;;;;;;4.50;80.30;;;;;;5020124;28;87147;-63
2021/12/05 08:30:36;;;;;;;;;;;4.40;80.20;;;;;;5018688;28;89628;-64
2021/12/05 08:36:18;;;;;;;;;;;4.40;80.40;;;;;;5020604;28;88395;-63
2021/12/05 10:02:50;;;;;;;;;;;4.60;80.50;;;;;;5017122;28;87162;-63
2021/12/05 10:37:22;;;;;;;;;;;4.80;82.00;;;;;;5019307;28;87247;-63
2021/12/05 10:40:00;;;;;;;;;;;4.80;81.90;;;;;;5016134;28;87863;-63
2021/12/05 10:42:39;;;;;;;;;;;4.80;81.80;;;;;;5018349;28;88457;-63
2021/12/05 10:45:07;;;;;;;;;;;4.80;81.90;;;;;;5018482;28;87311;-63
2021/12/05 10:47:36;;;;;;;;;;;4.80;81.90;;;;;;5018832;28;90932;-63
2021/12/05 10:50:21;;;;;;;;;;;4.80;81.90;;;;;;5015672;28;88183;-64
2021/12/05 10:52:46;;;;;;;;;;;4.80;81.80;;;;;;5018259;28;87718;-64
2021/12/05 10:55:12;;;;;;;;;;;4.90;81.90;;;;;;5018789;28;88274;-63
2021/12/05 10:57:42;;;;;;;;;;;4.90;81.90;;;;;;5019473;28;87132;-63
2021/12/05 11:00:12;;;;;;;;;;;4.90;81.90;;;;;;5016996;28;88070;-64
2021/12/05 11:02:37;;;;;;;;;;;4.90;81.70;;;;;;5016150;28;89672;-63
2021/12/05 11:05:03;;;;;;;;;;;4.90;82.00;;;;;;5020993;28;86474;-63
2021/12/05 11:07:35;;;;;;;;;;;4.90;82.20;;;;;;5018398;28;88229;-63
2021/12/05 11:10:03;;;;;;;;;;;4.90;82.20;;;;;;5017692;28;87135;-63
2021/12/05 11:12:32;;;;;;;;;;;4.90;82.20;;;;;;5018811;28;89411;-63
2021/12/05 11:15:02;;;;;;;;;;;5.00;82.20;;;;;;5020356;28;88994;-63
2021/12/05 11:17:29;;;;;;;;;;;4.90;82.20;;;;;;5021894;28;87177;-63
2021/12/05 11:19:58;;;;;;;;;;;5.00;82.20;;;;;;5021707;28;88009;-64
2021/12/05 11:22:28;;;;;;;;;;;5.00;82.30;;;;;;5019759;28;89759;-63
2021/12/05 11:24:58;;;;;;;;;;;5.00;82.30;;;;;;5019578;28;87377;-63
2021/12/05 11:27:27;;;;;;;;;;;5.00;82.40;;;;;;5022293;28;87186;-64
2021/12/05 11:29:52;;;;;;;;;;;5.00;82.40;;;;;;5020795;28;87963;-63
2021/12/05 11:32:20;;;;;;;;;;;5.00;82.40;;;;;;5018103;28;87168;-64
2021/12/05 11:34:46;;;;;;;;;;;5.00;82.50;;;;;;5021604;28;89017;-64
2021/12/05 11:37:12;;;;;;;;;;;5.00;82.50;;;;;;5021263;28;88122;-64
2021/12/05 11:39:37;;;;;;;;;;;5.00;82.00;;;;;;5021956;28;89923;-64
2021/12/05 11:42:10;;;;;;;;;;;5.00;82.60;;;;;;5021542;28;88104;-63
2021/12/05 11:44:36;;;;;;;;;;;5.00;82.60;;;;;;5021121;28;87177;-64
2021/12/05 11:47:10;;;;;;;;;;;5.10;82.50;;;;;;5022572;28;87444;-64
2021/12/05 11:49:35;;;;;;;;;;;5.10;82.20;;;;;;5021849;28;88631;-64
2021/12/05 11:52:02;;;;;;;;;;;5.10;82.60;;;;;;5020505;28;89404;-63
2021/12/05 11:54:31;;;;;;;;;;;5.10;82.80;;;;;;5019492;28;89522;-64
2021/12/05 11:57:11;;;;;;;;;;;5.10;82.70;;;;;;5022688;28;87147;-64
2021/12/05 11:59:43;;;;;;;;;;;5.10;82.70;;;;;;5022798;28;87528;-63
2021/12/05 12:02:10;;;;;;;;;;;5.20;82.70;;;;;;5020866;28;89328;-63
2021/12/05 12:04:42;;;;;;;;;;;5.20;82.60;;;;;;5019077;28;87162;-63
2021/12/05 12:07:13;;;;;;;;;;;5.20;82.80;;;;;;5017800;28;87727;-64
2021/12/05 12:09:39;;;;;;;;;;;5.20;82.80;;;;;;5017192;28;89483;-63
2021/12/05 12:12:05;;;;;;;;;;;5.20;82.70;;;;;;5020281;28;87253;-63
2021/12/05 12:14:30;;;;;;;;;;;5.20;82.90;;;;;;5017864;28;88196;-63
2021/12/05 12:16:58;;;;;;;;;;;5.20;82.80;;;;;;5018077;28;87112;-64
2021/12/05 12:19:23;;;;;;;;;;;5.30;83.00;;;;;;5022238;28;88761;-63
2021/12/05 12:21:52;;;;;;;;;;;5.20;82.90;;;;;;5020931;28;88319;-63
2021/12/05 12:24:18;;;;;;;;;;;5.30;82.90;;;;;;5018612;28;87205;-64
2021/12/05 12:26:44;;;;;;;;;;;5.30;82.90;;;;;;5017484;28;88073;-63
2021/12/05 12:29:11;;;;;;;;;;;5.30;83.10;;;;;;5017972;28;89203;-64
2021/12/05 12:31:39;;;;;;;;;;;5.30;83.00;;;;;;5017624;28;87143;-63
2021/12/05 12:34:10;;;;;;;;;;;5.30;83.10;;;;;;5021712;28;88750;-63
2021/12/05 12:36:37;;;;;;;;;;;5.30;83.10;;;;;;5019297;28;88181;-64
2021/12/05 12:39:05;;;;;;;;;;;5.40;83.20;;;;;;5020652;28;89327;-63
2021/12/05 12:41:31;;;;;;;;;;;5.40;83.30;;;;;;5016949;28;89487;-64
2021/12/05 12:43:59;;;;;;;;;;;5.40;83.40;;;;;;5021826;28;88005;-63
2021/12/05 12:46:27;;;;;;;;;;;5.40;83.40;;;;;;5018965;28;87174;-63
2021/12/05 12:48:56;;;;;;;;;;;5.40;83.40;;;;;;5021094;28;89709;-63
2021/12/05 12:51:27;;;;;;;;;;;5.40;83.40;;;;;;5017691;28;88074;-64
2021/12/05 12:53:55;;;;;;;;;;;5.40;83.50;;;;;;5020467;28;88320;-63
2021/12/05 12:56:22;;;;;;;;;;;5.40;83.60;;;;;;5020602;28;88623;-63
2021/12/05 12:58:50;;;;;;;;;;;5.40;83.50;;;;;;5020336;28;88612;-64
2021/12/05 13:10:00;;;;;;;;;;;5.50;83.90;;;;;;5018941;28;87334;-64
2021/12/05 13:10:18;;;;;;;;;;;5.40;83.80;;;;;;5018080;28;87481;-64
2021/12/05 13:12:48;;;;;;;;;;;5.50;83.80;;;;;;5019200;28;87284;-64
2021/12/05 13:15:29;;;;;;;;;;;5.50;83.50;;;;;;5020231;28;88547;-63
2021/12/05 13:17:59;;;;;;;;;;;5.50;83.90;;;;;;5022805;28;90072;-64
2021/12/05 13:20:27;;;;;;;;;;;5.50;84.00;;;;;;5020430;28;90232;-64
2021/12/05 13:23:00;;;;;;;;;;;5.60;84.10;;;;;;5019321;28;89606;-64
2021/12/05 13:25:26;;;;;;;;;;;5.60;83.90;;;;;;5016524;28;87172;-64
2021/12/05 13:27:52;;;;;;;;;;;5.50;83.80;;;;;;5016456;28;87852;-64
2021/12/05 13:30:31;;;;;;;;;;;5.60;84.00;;;;;;5017328;28;87587;-64
2021/12/05 13:33:15;;;;;;;;;;;5.60;84.20;;;;;;5019845;28;88635;-64
2021/12/05 13:35:42;;;;;;;;;;;5.60;84.00;;;;;;5018090;28;86397;-64
2021/12/05 13:38:28;;;;;;;;;;;5.60;84.20;;;;;;5015830;28;91117;-64
2021/12/05 13:40:56;;;;;;;;;;;5.60;84.00;;;;;;5019413;28;87192;-64
2021/12/05 13:43:29;;;;;;;;;;;5.70;84.10;;;;;;5017135;28;89313;-64
2021/12/05 13:45:57;;;;;;;;;;;5.70;84.10;;;;;;5017249;28;87685;-64
2021/12/05 13:48:27;;;;;;;;;;;5.70;84.10;;;;;;5017516;28;89329;-64
2021/12/05 13:51:00;;;;;;;;;;;5.70;83.90;;;;;;5017208;28;88199;-64
2021/12/05 13:53:45;;;;;;;;;;;5.70;83.80;;;;;;5019921;28;87152;-64
2021/12/05 13:56:11;;;;;;;;;;;5.70;84.10;;;;;;5018821;28;87849;-63
2021/12/05 13:58:46;;;;;;;;;;;5.70;84.20;;;;;;5020032;28;89472;-64
2021/12/05 14:01:18;;;;;;;;;;;5.70;84.00;;;;;;5016396;28;86415;-64
2021/12/05 14:04:03;;;;;;;;;;;5.80;84.00;;;;;;5018971;28;88655;-64
2021/12/05 14:06:31;;;;;;;;;;;5.70;84.20;;;;;;5017218;28;87148;-63
2021/12/05 14:09:03;;;;;;;;;;;5.80;84.20;;;;;;5015080;28;88278;-64
2021/12/05 14:11:30;;;;;;;;;;;5.80;84.10;;;;;;5016587;28;89562;-64
2021/12/05 14:13:56;;;;;;;;;;;5.80;84.30;;;;;;5019348;28;87183;-64
2021/12/05 14:16:28;;;;;;;;;;;5.80;84.10;;;;;;5019404;28;87019;-64
2021/12/05 14:18:54;;;;;;;;;;;5.80;84.20;;;;;;5016967;28;88211;-64
2021/12/05 14:21:20;;;;;;;;;;;5.80;84.10;;;;;;5018357;28;87121;-64
2021/12/05 14:23:49;;;;;;;;;;;5.90;84.20;;;;;;5019067;28;89370;-64
2021/12/05 14:26:16;;;;;;;;;;;5.80;84.20;;;;;;5018887;28;87988;-64
2021/12/05 14:28:42;;;;;;;;;;;5.90;84.40;;;;;;5019834;28;87159;-64
2021/12/05 14:31:07;;;;;;;;;;;5.90;84.40;;;;;;5019815;28;88290;-64
2021/12/05 14:33:49;;;;;;;;;;;5.90;84.40;;;;;;5018916;28;89838;-65
2021/12/05 14:36:26;;;;;;;;;;;5.90;84.30;;;;;;5018551;28;88752;-64
2021/12/05 14:39:18;;;;;;;;;;;5.90;84.20;;;;;;5017090;28;88621;-64
2021/12/05 14:41:45;;;;;;;;;;;5.90;84.30;;;;;;5014546;28;87144;-64
2021/12/05 14:44:11;;;;;;;;;;;5.90;84.20;;;;;;5016673;28;87728;-64
2021/12/05 14:46:47;;;;;;;;;;;5.90;84.20;;;;;;5017519;28;90046;-65
2021/12/05 14:49:13;;;;;;;;;;;5.90;84.30;;;;;;5022994;28;87191;-64
2021/12/05 14:51:40;;;;;;;;;;;5.90;84.40;;;;;;5019695;28;87961;-64
2021/12/05 14:54:07;;;;;;;;;;;5.90;84.30;;;;;;5020110;28;88334;-64
2021/12/05 14:56:34;;;;;;;;;;;5.90;84.40;;;;;;5020205;28;88860;-64
2021/12/05 14:59:02;;;;;;;;;;;5.90;84.40;;;;;;5020611;28;89523;-64
2021/12/05 15:01:28;;;;;;;;;;;5.90;84.50;;;;;;5021293;28;87299;-64
2021/12/05 15:03:54;;;;;;;;;;;6.00;84.40;;;;;;5020696;28;87166;-65
2021/12/05 15:06:19;;;;;;;;;;;6.00;84.40;;;;;;5021566;28;88256;-64
2021/12/05 15:08:45;;;;;;;;;;;6.00;84.30;;;;;;5025598;28;87264;-64
2021/12/05 15:11:11;;;;;;;;;;;6.00;84.40;;;;;;5020714;28;88166;-64
2021/12/05 15:13:37;;;;;;;;;;;6.00;84.20;;;;;;5021262;28;87174;-64
2021/12/05 15:16:04;;;;;;;;;;;6.00;84.10;;;;;;5021377;28;87640;-64
2021/12/05 15:18:32;;;;;;;;;;;6.00;84.20;;;;;;5019555;28;88645;-64
2021/12/05 15:20:58;;;;;;;;;;;6.00;84.10;;;;;;5020102;28;88057;-64
2021/12/05 15:23:28;;;;;;;;;;;6.10;84.20;;;;;;5020624;28;88269;-65
2021/12/05 15:25:54;;;;;;;;;;;6.00;84.10;;;;;;5017837;28;87986;-64
2021/12/05 15:28:22;;;;;;;;;;;6.10;84.10;;;;;;5018160;28;88980;-64
2021/12/05 15:30:48;;;;;;;;;;;6.00;84.10;;;;;;5024473;28;89319;-63
2021/12/05 15:33:18;;;;;;;;;;;6.10;84.10;;;;;;5020894;28;87254;-64
2021/12/05 15:35:44;;;;;;;;;;;6.10;84.00;;;;;;5019173;28;87162;-64
2021/12/05 15:38:21;;;;;;;;;;;6.10;84.10;;;;;;5017936;28;88024;-64
2021/12/05 15:40:47;;;;;;;;;;;6.10;84.00;;;;;;5022834;28;86513;-64
2021/12/05 15:43:15;;;;;;;;;;;6.10;84.10;;;;;;5022905;28;87155;-64
2021/12/05 15:45:41;;;;;;;;;;;6.10;84.10;;;;;;5020990;28;87175;-64
2021/12/05 15:48:07;;;;;;;;;;;6.10;84.10;;;;;;5019504;28;88104;-64
2021/12/05 15:50:34;;;;;;;;;;;6.10;84.00;;;;;;5019714;28;88451;-64
2021/12/05 15:53:00;;;;;;;;;;;6.10;84.00;;;;;;5021325;28;89027;-64
2021/12/05 15:55:38;;;;;;;;;;;6.10;84.00;;;;;;5018279;28;87945;-65
2021/12/05 15:58:09;;;;;;;;;;;6.10;84.00;;;;;;5020319;28;89968;-65
2021/12/05 16:00:36;;;;;;;;;;;6.10;84.00;;;;;;5022209;28;88264;-65
2021/12/05 16:03:07;;;;;;;;;;;6.20;84.00;;;;;;5021070;28;87552;-65
2021/12/05 16:05:33;;;;;;;;;;;6.20;83.90;;;;;;5021096;28;87564;-64
2021/12/05 16:08:04;;;;;;;;;;;6.20;84.00;;;;;;5019331;28;87241;-65
2021/12/05 16:10:30;;;;;;;;;;;6.20;83.90;;;;;;5019321;28;87857;-65
2021/12/05 16:12:55;;;;;;;;;;;6.20;83.90;;;;;;5018488;28;88902;-65
2021/12/05 16:15:25;;;;;;;;;;;6.20;83.70;;;;;;5021950;28;87162;-65
2021/12/05 16:17:52;;;;;;;;;;;6.20;83.70;;;;;;5019922;28;87871;-65
2021/12/05 16:20:19;;;;;;;;;;;6.20;83.50;;;;;;5017894;28;87168;-65
2021/12/05 16:22:59;;;;;;;;;;;6.30;83.60;;;;;;5021100;28;88858;-65
2021/12/05 16:25:25;;;;;;;;;;;6.20;83.60;;;;;;5021444;28;87256;-65
2021/12/05 16:27:52;;;;;;;;;;;6.20;83.60;;;;;;5021286;28;87197;-65
2021/12/05 16:30:22;;;;;;;;;;;6.30;83.70;;;;;;5019526;28;88212;-65
2021/12/05 16:32:47;;;;;;;;;;;6.30;83.60;;;;;;5018995;28;88093;-65
2021/12/05 16:35:26;;;;;;;;;;;6.30;83.60;;;;;;5018465;28;87167;-65
2021/12/05 16:37:52;;;;;;;;;;;6.30;83.50;;;;;;5022042;28;88204;-65
2021/12/05 16:40:17;;;;;;;;;;;6.30;83.50;;;;;;5019193;28;87174;-65
2021/12/05 16:42:44;;;;;;;;;;;6.30;83.40;;;;;;5019087;28;87248;-65
2021/12/05 16:45:11;;;;;;;;;;;6.30;83.50;;;;;;5017287;28;89807;-64
2021/12/05 16:47:37;;;;;;;;;;;6.30;83.50;;;;;;5017153;28;88018;-65
2021/12/05 16:50:03;;;;;;;;;;;6.30;83.50;;;;;;5021424;28;88011;-65
2021/12/05 16:52:33;;;;;;;;;;;6.30;83.50;;;;;;5019827;28;88554;-65
2021/12/05 16:55:03;;;;;;;;;;;6.30;83.40;;;;;;5021654;28;86525;-65
2021/12/05 16:57:34;;;;;;;;;;;6.30;83.40;;;;;;5021173;28;87150;-65
2021/12/05 17:00:08;;;;;;;;;;;6.40;83.50;;;;;;5022930;28;88533;-65
2021/12/05 17:02:40;;;;;;;;;;;6.40;83.50;;;;;;5017482;28;89181;-65
2021/12/05 17:05:26;;;;;;;;;;;6.40;83.50;;;;;;5019059;28;88658;-65
2021/12/05 17:08:02;;;;;;;;;;;6.30;83.60;;;;;;5017560;28;87199;-65
2021/12/05 17:10:30;;;;;;;;;;;6.30;83.60;;;;;;5016499;28;89120;-65
2021/12/05 17:13:06;;;;;;;;;;;6.40;83.60;;;;;;5019886;28;89429;-64
2021/12/05 17:15:34;;;;;;;;;;;6.30;83.70;;;;;;5018206;28;87162;-65
2021/12/05 17:18:04;;;;;;;;;;;6.40;83.70;;;;;;5017745;28;87541;-65
2021/12/05 17:20:36;;;;;;;;;;;6.40;83.60;;;;;;5021312;28;87503;-65
2021/12/05 17:23:10;;;;;;;;;;;6.40;83.60;;;;;;5016648;28;89124;-65
2021/12/05 17:25:35;;;;;;;;;;;6.40;83.60;;;;;;5017779;28;89605;-65
2021/12/05 17:28:02;;;;;;;;;;;6.40;83.70;;;;;;5017081;28;88289;-65
2021/12/05 17:30:28;;;;;;;;;;;6.40;83.60;;;;;;5020870;28;89782;-65
2021/12/05 17:32:54;;;;;;;;;;;6.40;83.60;;;;;;5020284;28;88164;-65
2021/12/05 17:35:20;;;;;;;;;;;6.40;83.60;;;;;;5019360;28;87207;-65
2021/12/05 17:37:47;;;;;;;;;;;6.40;83.40;;;;;;5018389;28;87357;-65
2021/12/05 17:40:13;;;;;;;;;;;6.40;83.60;;;;;;5017001;28;89243;-64
2021/12/05 17:42:39;;;;;;;;;;;6.40;83.60;;;;;;5023631;28;87173;-64
2021/12/05 17:45:07;;;;;;;;;;;6.40;83.60;;;;;;5020515;28;88938;-65
2021/12/05 17:47:33;;;;;;;;;;;6.40;83.50;;;;;;5017701;28;87265;-65
2021/12/05 17:49:59;;;;;;;;;;;6.50;83.60;;;;;;5016861;28;88999;-65
2021/12/05 17:52:26;;;;;;;;;;;6.50;83.70;;;;;;5019171;28;89982;-65
2021/12/05 17:54:58;;;;;;;;;;;6.50;83.60;;;;;;5017082;28;87218;-65
2021/12/05 17:57:52;;;;;;;;;;;6.50;83.70;;;;;;5016135;28;88462;-65
2021/12/05 18:03:02;;;;;;;;;;;6.50;83.70;;;;;;5017361;28;87156;-65
2021/12/05 18:05:27;;;;;;;;;;;6.50;83.60;;;;;;5020555;28;88806;-65
2021/12/05 18:07:54;;;;;;;;;;;6.50;83.70;;;;;;5019477;28;88372;-65
2021/12/05 18:10:21;;;;;;;;;;;6.50;83.70;;;;;;5020055;28;87213;-65
2021/12/05 18:12:49;;;;;;;;;;;6.50;83.60;;;;;;5016472;28;88370;-65
2021/12/05 18:15:24;;;;;;;;;;;6.50;83.50;;;;;;5020052;28;87129;-65
2021/12/05 18:17:50;;;;;;;;;;;6.50;83.50;;;;;;5017206;28;89095;-64
2021/12/05 18:20:18;;;;;;;;;;;6.50;83.50;;;;;;5021938;28;88284;-65
2021/12/05 18:22:45;;;;;;;;;;;6.50;83.50;;;;;;5019241;28;87277;-65
2021/12/05 18:25:12;;;;;;;;;;;6.50;83.50;;;;;;5019214;28;87960;-65
2021/12/05 18:27:38;;;;;;;;;;;6.50;83.60;;;;;;5024558;28;89772;-64
2021/12/05 18:30:05;;;;;;;;;;;6.50;83.70;;;;;;5021472;28;87184;-65
2021/12/05 18:32:31;;;;;;;;;;;6.50;83.50;;;;;;5019022;28;87735;-65
2021/12/05 18:34:56;;;;;;;;;;;6.50;83.50;;;;;;5019672;28;87749;-65
2021/12/05 18:37:22;;;;;;;;;;;6.50;83.40;;;;;;5021582;28;88903;-65
2021/12/05 18:39:50;;;;;;;;;;;6.50;83.40;;;;;;5020442;28;89341;-65
2021/12/05 18:42:18;;;;;;;;;;;6.60;83.30;;;;;;5019405;28;88180;-65
2021/12/05 18:44:49;;;;;;;;;;;6.60;83.40;;;;;;5023430;28;89759;-65
2021/12/05 18:47:15;;;;;;;;;;;6.60;83.40;;;;;;5022020;28;88615;-65
2021/12/05 18:49:41;;;;;;;;;;;6.60;83.30;;;;;;5024181;28;87179;-65
2021/12/05 18:52:07;;;;;;;;;;;6.60;83.40;;;;;;5019843;28;89276;-65
2021/12/05 18:54:35;;;;;;;;;;;6.60;83.30;;;;;;5020479;28;87216;-65
2021/12/05 18:57:02;;;;;;;;;;;6.60;83.30;;;;;;5022965;28;88927;-65
2021/12/05 18:59:31;;;;;;;;;;;6.60;83.40;;;;;;5020975;28;87786;-65
2021/12/05 19:04:47;;;;;;;;;;;6.60;83.40;;;;;;5023703;28;87137;-64
2021/12/05 19:07:19;;;;;;;;;;;6.60;83.40;;;;;;5021200;28;90967;-65
2021/12/05 19:12:19;;;;;;;;;;;6.60;83.30;;;;;;5024247;28;87160;-65
2021/12/05 19:14:46;;;;;;;;;;;6.60;83.30;;;;;;5022576;28;87184;-65
2021/12/05 19:17:21;;;;;;;;;;;6.60;83.40;;;;;;5020333;28;87999;-65
2021/12/05 19:19:48;;;;;;;;;;;6.60;83.30;;;;;;5021696;28;87520;-65
2021/12/05 19:22:17;;;;;;;;;;;6.60;83.20;;;;;;5018095;28;87180;-65
2021/12/05 19:24:43;;;;;;;;;;;6.60;83.20;;;;;;5021313;28;87521;-65
2021/12/05 19:27:09;;;;;;;;;;;6.60;83.20;;;;;;5019012;28;87657;-65
2021/12/05 19:29:36;;;;;;;;;;;6.60;83.30;;;;;;5019647;28;87238;-65
2021/12/05 19:32:03;;;;;;;;;;;6.60;83.30;;;;;;5019998;28;88982;-65
2021/12/05 19:34:28;;;;;;;;;;;6.60;83.30;;;;;;5022768;28;87183;-65
2021/12/05 19:36:55;;;;;;;;;;;6.60;83.30;;;;;;5022178;28;87818;-64
2021/12/05 19:39:23;;;;;;;;;;;6.60;83.10;;;;;;5019937;28;87138;-65
2021/12/05 19:41:49;;;;;;;;;;;6.60;83.00;;;;;;5022358;28;87301;-64
2021/12/05 19:44:15;;;;;;;;;;;6.70;83.00;;;;;;5021094;28;88902;-65
2021/12/05 19:46:41;;;;;;;;;;;6.60;83.00;;;;;;5018854;28;87646;-65
2021/12/05 19:49:07;;;;;;;;;;;6.60;83.00;;;;;;5018287;28;86396;-65
2021/12/05 19:51:35;;;;;;;;;;;6.60;83.00;;;;;;5021394;28;88715;-65
2021/12/05 19:54:01;;;;;;;;;;;6.60;82.90;;;;;;5022322;28;89215;-65
2021/12/05 19:56:27;;;;;;;;;;;6.70;82.90;;;;;;5017457;28;88159;-65
2021/12/05 19:58:53;;;;;;;;;;;6.70;82.80;;;;;;5017706;28;88679;-65
2021/12/05 20:01:19;;;;;;;;;;;6.70;82.80;;;;;;5018560;28;88864;-65
2021/12/05 20:03:44;;;;;;;;;;;6.70;82.80;;;;;;5018058;28;89025;-65
2021/12/05 20:06:11;;;;;;;;;;;6.70;82.80;;;;;;5021993;28;89564;-65
2021/12/05 20:08:36;;;;;;;;;;;6.70;82.70;;;;;;5021051;28;87156;-65
2021/12/05 20:11:04;;;;;;;;;;;6.70;82.80;;;;;;5021101;28;87418;-65
2021/12/05 20:13:30;;;;;;;;;;;6.70;83.30;;;;;;5017958;28;87769;-65
2021/12/05 20:15:56;;;;;;;;;;;6.70;82.70;;;;;;5020796;28;87167;-65
2021/12/05 20:18:21;;;;;;;;;;;6.70;83.20;;;;;;5017516;28;89088;-65
2021/12/05 20:20:49;;;;;;;;;;;6.70;82.70;;;;;;5017140;28;88187;-65
2021/12/05 20:23:15;;;;;;;;;;;6.70;82.90;;;;;;5022196;28;87933;-65
2021/12/05 20:25:41;;;;;;;;;;;6.70;82.90;;;;;;5020070;28;87204;-65
2021/12/05 20:28:07;;;;;;;;;;;6.70;82.90;;;;;;5020261;28;87131;-65
2021/12/05 20:30:33;;;;;;;;;;;6.70;82.90;;;;;;5018841;28;88540;-65